Boston, Massachusetts
Traffic Map
Current Weather Conditions
Boston, Massachusetts
Broken Clouds
Broken Clouds
51°
Feels Like: 51°
Wind Chill: 51° Ceiling: 20000
Heat Index: 51° Visibility: 10mi
Dew Point: 28° Wind: 9mph
Humidity: 41% Direction: 260° (W)
Pressure: 30.05in Gusts: 0mph
Raw Report DataKBOS 260154Z 26008KT 10SM FEW130 BKN200 11/M02 A3005 RMK AO2 SLP176 T01061022
Traffic Incident Summary
Active as of:
Severity:
Category:
InformationThere was an issue retrieving the traffic information for this location. Please try a different location or try again shortly.
Advertisements
Track Severe Weather on mobile